Franklin Grove, IL

2:03 AM CST on February 01, 2015 (GMT -0600)
De Kalb Taylor Municipal | Change Station
CLOSE
Current Station
Airport
Location: DeKalb,
Elevation: 915 ft
Nearby Weather Stations
Active Advisory: Winter Storm Warning

Elev 915 ft 41.93 °N, 88.71 °W | Updated 8 minutes ago

Snow
Snow
29 °F
Feels Like 19 °F
N
12
Wind Variable Wind from East

Today
High -- | Low -- °F
--% Chance of Precip.
Yesterday
High -- | Low -- °F
Precip. -- in
7:09 AM 5:12 PM
Waxing Gibbous, 94% visible
Pressure 30.07 in
Visibility 1.2 miles
Clouds Overcast 300 ft
Windchill 19 °F
Dew Point 28 °F
Humidity 96%
Rainfall 0.03 in
Snow Depth Not available.
UV 0 out of 12
Pollen .10 out of 12
Air Quality Not available.
Flu Activity Not available.
METAR KDKB 010755Z AUTO 09010KT 1 1/4SM -SN OVC003 M02/M02 A3007 RMK AO2 P0001 T10161021

More Conditions Fewer Conditions

Pressure 30.07 in
Visibility 1.2 miles
Clouds Overcast 300 ft
Windchill 19 °F
Dew Point 28 °F
Humidity 96%
Rainfall 0.03 in
Snow Depth Not available.
UV 0 out of 12
Pollen .10 out of 12
Air Quality Not available.
Flu Activity Not available.
METAR KDKB 010755Z AUTO 09010KT 1 1/4SM -SN OVC003 M02/M02 A3007 RMK AO2 P0001 T10161021

More Conditions Fewer Conditions

10-Day Weather Forecast

Almanac

Astronomy

Feb. 01, 2015 Rise Set
Actual Time
Civil Twilight
Nautical Twilight
Astronomical Twilight
Moon
Length of Visible Light
Length of Day
Tomorrow will be .
, % of the Moon is Illuminated

Today's Extremes

State Highs State Lows

Community

WunderPhotos

Upload Photos

1,792,327 photos uploaded!

WunderBlogs® & News

Nearby

Air Quality

  Air Quality AQ Index Pollutant
Not available.

Snow Depth

Station Depth Elevation

Earthquake Activity

City Distance Mag. Time & Date
Minimum magnitude displayed is 2.5.

Coastal Water Temperatures

Place Temperature

Nearby Weather Stations